Time;durP1;ratioP1;P1;durP2;ratioP2;P2;SDS_P1;SDS_P2;PMS_P1;PMS_P2;Temp;Humidity;BMP_temperature;BMP_pressure;BME280_temperature;BME280_humidity;BME280_pressure;Samples;Min_cycle;Max_cycle;Signal;HPM_P1;HPM_P2
2022/10/07 00:01:53;;;;;;;56.35;24.77;;;5.80;99.90;;;;;;5076139;28;20508;-70
2022/10/07 00:04:19;;;;;;;54.30;23.13;;;5.80;99.90;;;;;;5075806;28;20095;-74
2022/10/07 00:06:44;;;;;;;61.33;24.73;;;5.70;99.90;;;;;;5076144;28;20111;-74
2022/10/07 00:09:10;;;;;;;48.08;22.67;;;5.70;99.90;;;;;;5075576;28;20112;-69
2022/10/07 00:11:36;;;;;;;43.03;21.05;;;5.70;99.90;;;;;;5075929;28;20078;-70
2022/10/07 00:14:06;;;;;;;37.60;18.63;;;5.70;99.90;;;;;;5075604;28;20505;-70
2022/10/07 00:16:37;;;;;;;41.17;19.30;;;5.70;99.90;;;;;;5075965;28;20025;-74
2022/10/07 00:19:06;;;;;;;39.22;20.27;;;5.70;99.90;;;;;;5075714;28;20031;-74
2022/10/07 00:21:34;;;;;;;37.92;19.27;;;5.70;99.90;;;;;;5075702;28;20054;-74
2022/10/07 00:24:00;;;;;;;45.17;22.80;;;5.60;99.90;;;;;;5075650;28;20478;-69
2022/10/07 00:26:28;;;;;;;36.42;18.73;;;5.60;99.90;;;;;;5059499;28;20032;-74
2022/10/07 00:28:54;;;;;;;41.72;19.08;;;5.60;99.90;;;;;;5054437;28;20032;-74
2022/10/07 00:31:22;;;;;;;46.28;20.88;;;5.50;99.90;;;;;;5055644;28;20025;-71
2022/10/07 00:33:49;;;;;;;38.22;19.05;;;5.50;99.90;;;;;;5055541;28;20021;-74
2022/10/07 00:36:17;;;;;;;39.40;20.98;;;5.50;99.90;;;;;;5055436;28;20041;-70
2022/10/07 00:38:43;;;;;;;35.20;18.33;;;5.50;99.90;;;;;;5055640;28;20425;-69
2022/10/07 00:41:16;;;;;;;36.60;19.05;;;5.40;99.90;;;;;;5055208;28;20083;-70
2022/10/07 00:43:42;;;;;;;31.25;17.55;;;5.30;99.90;;;;;;5055649;28;20025;-74
2022/10/07 00:46:34;;;;;;;30.15;17.05;;;5.30;99.90;;;;;;5053959;28;20497;-71
2022/10/07 00:49:09;;;;;;;24.17;14.98;;;5.30;99.90;;;;;;5054156;28;20499;-74
2022/10/07 00:51:36;;;;;;;33.30;16.48;;;5.30;99.90;;;;;;5055374;28;20035;-70
2022/10/07 00:54:09;;;;;;;34.58;17.40;;;5.20;99.90;;;;;;5059653;28;20488;-70
2022/10/07 00:56:35;;;;;;;26.75;14.32;;;5.20;99.90;;;;;;5075247;28;20070;-74
2022/10/07 00:59:01;;;;;;;30.95;17.00;;;5.20;99.90;;;;;;5074813;28;20028;-74
2022/10/07 01:01:26;;;;;;;37.00;16.92;;;5.20;99.90;;;;;;5074832;28;20052;-70
2022/10/07 01:03:53;;;;;;;30.50;14.13;;;5.10;99.90;;;;;;5074730;28;20032;-70
2022/10/07 01:06:18;;;;;;;36.38;14.90;;;5.10;99.90;;;;;;5073641;28;20039;-71
2022/10/07 01:08:46;;;;;;;34.40;15.52;;;5.10;99.90;;;;;;5074670;28;20506;-69
2022/10/07 01:11:39;;;;;;;42.30;19.70;;;5.10;99.90;;;;;;5074866;28;20027;-70
2022/10/07 01:14:23;;;;;;;41.88;16.52;;;5.10;99.90;;;;;;5074610;28;20012;-69
2022/10/07 01:17:01;;;;;;;29.13;14.70;;;5.10;99.90;;;;;;5074868;28;20024;-70
2022/10/07 01:20:04;;;;;;;27.13;15.15;;;5.10;99.90;;;;;;5074465;28;20025;-70
2022/10/07 01:22:39;;;;;;;35.22;13.15;;;5.10;99.90;;;;;;5075043;28;20059;-73
2022/10/07 01:25:15;;;;;;;25.00;14.27;;;5.10;99.90;;;;;;5068768;28;20033;-74
2022/10/07 01:27:49;;;;;;;20.67;12.60;;;5.10;99.90;;;;;;5053163;28;20053;-74
2022/10/07 01:30:17;;;;;;;21.55;11.98;;;5.10;99.90;;;;;;5067163;28;20086;-74
2022/10/07 01:33:00;;;;;;;21.95;11.38;;;5.10;99.90;;;;;;5074695;28;20017;-70
2022/10/07 01:35:32;;;;;;;24.30;12.80;;;5.10;99.90;;;;;;5074068;28;20112;-74
2022/10/07 01:38:04;;;;;;;34.70;15.00;;;5.10;99.90;;;;;;5073195;28;20021;-74
2022/10/07 01:40:39;;;;;;;24.15;12.88;;;5.00;99.90;;;;;;5061109;28;20562;-74
2022/10/07 01:43:05;;;;;;;28.08;14.07;;;5.00;99.90;;;;;;5054388;28;20048;-74
2022/10/07 01:45:34;;;;;;;25.95;13.15;;;5.00;99.90;;;;;;5054197;28;20104;-70
2022/10/07 01:48:00;;;;;;;25.00;11.95;;;4.90;99.90;;;;;;5054288;28;20096;-70
2022/10/07 01:50:28;;;;;;;19.95;11.50;;;4.90;99.90;;;;;;5052806;28;20029;-70
2022/10/07 01:53:36;;;;;;;30.15;15.40;;;4.90;99.90;;;;;;5053888;28;20029;-69
2022/10/07 01:56:29;;;;;;;29.17;13.02;;;4.80;99.90;;;;;;5032839;28;20034;-74
2022/10/07 01:59:32;;;;;;;23.90;11.38;;;4.80;99.90;;;;;;5034328;28;20538;-74
2022/10/07 02:02:16;;;;;;;19.20;10.25;;;4.80;99.90;;;;;;5052505;28;20128;-74
2022/10/07 02:05:08;;;;;;;19.02;10.60;;;4.70;99.90;;;;;;5054116;28;20474;-73
2022/10/07 02:07:43;;;;;;;16.58;9.88;;;4.70;99.90;;;;;;5052510;28;20033;-70
2022/10/07 02:10:25;;;;;;;14.02;9.65;;;4.70;99.90;;;;;;5053440;28;20029;-70
2022/10/07 02:13:07;;;;;;;20.10;10.00;;;4.70;99.90;;;;;;5053750;28;20463;-74
2022/10/07 02:16:00;;;;;;;13.77;9.23;;;4.70;99.90;;;;;;5041432;28;20494;-74
2022/10/07 02:18:27;;;;;;;15.40;8.95;;;4.60;99.90;;;;;;5032528;28;20287;-70
2022/10/07 02:20:54;;;;;;;26.13;11.20;;;4.60;99.90;;;;;;5047749;28;20056;-74
2022/10/07 02:23:22;;;;;;;17.77;10.52;;;4.60;99.90;;;;;;5053625;28;20363;-70
2022/10/07 02:25:51;;;;;;;15.82;8.77;;;4.60;99.90;;;;;;5065142;28;20024;-74
2022/10/07 02:28:20;;;;;;;14.40;9.43;;;4.60;99.90;;;;;;5073511;28;20576;-70
2022/10/07 02:30:52;;;;;;;19.95;9.93;;;4.60;99.90;;;;;;5073380;28;20498;-70
2022/10/07 02:33:19;;;;;;;20.67;10.60;;;4.60;99.90;;;;;;5072306;28;20081;-69
2022/10/07 02:35:51;;;;;;;12.38;8.98;;;4.60;99.90;;;;;;5071992;28;20046;-70
2022/10/07 02:38:17;;;;;;;17.27;9.95;;;4.60;99.90;;;;;;5073406;28;20024;-73
2022/10/07 02:41:33;;;;;;;20.45;9.75;;;4.50;99.90;;;;;;5073046;28;20044;-73
2022/10/07 02:44:26;;;;;;;16.73;8.90;;;4.50;99.90;;;;;;5073327;28;20040;-69
2022/10/07 02:46:53;;;;;;;16.30;8.75;;;4.50;99.90;;;;;;5073391;28;20414;-70
2022/10/07 02:49:22;;;;;;;13.93;8.82;;;4.50;99.90;;;;;;5073106;28;20025;-70
2022/10/07 02:51:56;;;;;;;16.23;9.07;;;4.50;99.90;;;;;;5073414;28;20057;-73
2022/10/07 02:54:28;;;;;;;13.88;8.18;;;4.40;99.90;;;;;;5063466;28;20380;-70
2022/10/07 02:56:55;;;;;;;18.00;9.35;;;4.40;99.90;;;;;;5051959;28;20029;-73
2022/10/07 02:59:22;;;;;;;15.15;8.57;;;4.40;99.90;;;;;;5053111;28;20036;-72
2022/10/07 03:01:52;;;;;;;21.10;10.07;;;4.50;99.90;;;;;;5053110;28;20098;-73
2022/10/07 03:04:20;;;;;;;18.48;9.02;;;4.50;99.90;;;;;;5053498;28;20025;-73
2022/10/07 03:06:45;;;;;;;20.33;10.27;;;4.50;99.90;;;;;;5051847;28;20048;-74
2022/10/07 03:09:11;;;;;;;17.75;9.48;;;4.50;99.90;;;;;;5053046;28;20072;-74
2022/10/07 03:11:38;;;;;;;25.42;9.25;;;4.50;99.90;;;;;;5053194;28;20025;-70
2022/10/07 03:14:04;;;;;;;14.55;7.82;;;4.50;99.90;;;;;;5052924;28;20025;-74
2022/10/07 03:16:30;;;;;;;18.38;8.40;;;4.50;99.90;;;;;;5053054;28;20079;-74
2022/10/07 03:18:57;;;;;;;15.20;7.85;;;4.50;99.90;;;;;;5053116;28;20367;-74
2022/10/07 03:21:23;;;;;;;17.42;8.40;;;4.50;99.90;;;;;;5053157;28;20033;-70
2022/10/07 03:23:53;;;;;;;13.40;7.53;;;4.50;99.90;;;;;;5056959;28;20560;-72
2022/10/07 03:26:19;;;;;;;19.38;8.50;;;4.50;99.90;;;;;;5072893;28;20017;-73
2022/10/07 03:28:45;;;;;;;16.55;7.22;;;4.50;99.90;;;;;;5076902;28;20028;-73
2022/10/07 03:31:13;;;;;;;10.85;7.57;;;4.50;99.90;;;;;;5076705;28;20024;-73
2022/10/07 03:33:39;;;;;;;17.98;7.65;;;4.50;99.90;;;;;;5076871;28;20078;-74
2022/10/07 03:36:07;;;;;;;11.45;6.00;;;4.50;99.90;;;;;;5076578;28;20025;-71
2022/10/07 03:38:34;;;;;;;10.60;6.03;;;4.40;99.90;;;;;;5076945;28;20050;-73
2022/10/07 03:41:06;;;;;;;10.85;6.00;;;4.50;99.90;;;;;;5075100;28;20034;-70
2022/10/07 03:43:32;;;;;;;9.00;5.35;;;4.40;99.90;;;;;;5076658;28;20427;-74
2022/10/07 03:46:01;;;;;;;9.75;5.72;;;4.50;99.90;;;;;;5076354;28;20024;-69
2022/10/07 03:48:29;;;;;;;8.77;5.28;;;4.50;99.90;;;;;;5076666;28;20067;-73
2022/10/07 03:50:57;;;;;;;7.93;5.43;;;4.50;99.90;;;;;;5076382;28;20111;-73
2022/10/07 03:53:25;;;;;;;10.68;5.28;;;4.50;99.90;;;;;;5075593;28;20024;-74
2022/10/07 03:55:50;;;;;;;6.15;5.20;;;4.50;99.90;;;;;;5056441;28;20037;-73
2022/10/07 03:58:16;;;;;;;6.35;5.05;;;4.50;99.90;;;;;;5056340;28;20025;-70
2022/10/07 04:00:42;;;;;;;9.23;5.60;;;4.50;99.90;;;;;;5054943;28;20076;-73
2022/10/07 04:03:08;;;;;;;9.88;5.20;;;4.60;99.90;;;;;;5054866;28;20029;-73
2022/10/07 04:05:35;;;;;;;7.90;4.95;;;4.50;99.90;;;;;;5056327;28;20032;-73
2022/10/07 04:08:01;;;;;;;11.20;6.55;;;4.60;99.90;;;;;;5056038;28;20025;-73
2022/10/07 04:10:26;;;;;;;6.32;4.88;;;4.60;99.90;;;;;;5056266;28;20047;-70
2022/10/07 04:12:52;;;;;;;8.93;6.35;;;4.60;99.90;;;;;;5056007;28;20021;-70
2022/10/07 04:15:19;;;;;;;11.77;7.75;;;4.70;99.90;;;;;;5055971;28;20017;-73
2022/10/07 04:17:46;;;;;;;11.68;6.85;;;4.80;99.90;;;;;;5054884;28;20463;-70
2022/10/07 04:20:13;;;;;;;10.18;5.85;;;4.80;99.90;;;;;;5055914;28;20120;-74
2022/10/07 04:22:39;;;;;;;9.15;6.30;;;4.80;99.90;;;;;;5056030;28;20466;-73
2022/10/07 04:27:55;;;;;;;11.40;6.55;;;4.80;99.90;;;;;;5076092;28;20063;-70
2022/10/07 04:30:22;;;;;;;10.43;7.75;;;4.80;99.90;;;;;;5075572;28;20075;-73
2022/10/07 04:32:49;;;;;;;7.65;4.97;;;4.90;99.90;;;;;;5075395;28;20390;-73
2022/10/07 04:35:16;;;;;;;6.90;5.10;;;4.80;99.90;;;;;;5075339;28;20028;-74
2022/10/07 04:37:42;;;;;;;9.70;4.90;;;4.80;99.90;;;;;;5075699;28;20059;-70
2022/10/07 04:40:09;;;;;;;7.95;5.25;;;4.80;99.90;;;;;;5073854;28;20036;-70
2022/10/07 04:45:19;;;;;;;7.97;4.45;;;4.90;99.90;;;;;;5075194;28;20039;-73
2022/10/07 04:47:45;;;;;;;9.00;6.10;;;4.90;99.90;;;;;;5075494;28;20021;-74
2022/10/07 04:50:11;;;;;;;10.38;4.72;;;4.90;99.90;;;;;;5073860;28;20017;-74
2022/10/07 04:52:43;;;;;;;6.15;4.95;;;4.80;99.90;;;;;;5075519;28;20024;-70
2022/10/07 04:55:11;;;;;;;17.38;6.38;;;4.80;99.90;;;;;;5059491;28;20410;-73
2022/10/07 04:57:36;;;;;;;10.45;4.80;;;4.80;99.90;;;;;;5055296;28;20377;-73
2022/10/07 05:00:03;;;;;;;9.32;5.82;;;4.80;99.90;;;;;;5055006;28;20049;-73
2022/10/07 05:02:29;;;;;;;9.45;5.80;;;4.80;99.90;;;;;;5055205;28;20159;-70
2022/10/07 05:04:54;;;;;;;8.07;5.95;;;4.80;99.90;;;;;;5055014;28;20104;-74
2022/10/07 05:07:20;;;;;;;6.53;5.00;;;4.90;99.90;;;;;;5055160;28;20532;-73
2022/10/07 05:09:45;;;;;;;10.23;5.53;;;4.90;99.90;;;;;;5053690;28;20052;-73
2022/10/07 05:12:11;;;;;;;6.88;5.05;;;4.90;99.90;;;;;;5054843;28;20025;-70
2022/10/07 05:14:37;;;;;;;7.93;5.78;;;4.90;99.90;;;;;;5054881;28;20029;-74
2022/10/07 05:17:03;;;;;;;8.20;5.25;;;4.90;99.90;;;;;;5054949;28;20021;-74
2022/10/07 05:19:29;;;;;;;6.60;5.32;;;4.90;99.90;;;;;;5053243;28;20099;-69
2022/10/07 05:21:54;;;;;;;13.52;7.05;;;4.90;99.90;;;;;;5045701;28;20171;-69
2022/10/07 05:24:20;;;;;;;13.57;5.95;;;4.90;99.90;;;;;;5056406;28;20029;-70
2022/10/07 05:26:45;;;;;;;10.07;5.43;;;5.00;99.90;;;;;;5054268;28;20036;-69
2022/10/07 05:29:12;;;;;;;9.27;5.55;;;5.00;99.90;;;;;;5056045;28;20076;-70
2022/10/07 05:31:37;;;;;;;19.75;12.32;;;5.10;99.90;;;;;;5058831;28;20591;-71
2022/10/07 05:34:03;;;;;;;17.63;11.60;;;5.10;99.90;;;;;;5039186;28;20042;-70
2022/10/07 05:36:29;;;;;;;32.30;19.58;;;5.20;99.90;;;;;;5051122;28;20497;-69
2022/10/07 05:38:56;;;;;;;19.58;12.38;;;5.40;99.90;;;;;;5070306;28;20095;-74
2022/10/07 05:41:23;;;;;;;21.30;13.30;;;5.50;99.90;;;;;;5070248;28;20102;-74
2022/10/07 05:43:48;;;;;;;35.13;21.90;;;5.60;99.90;;;;;;5060261;28;20105;-70
2022/10/07 05:46:16;;;;;;;21.65;16.17;;;5.70;99.90;;;;;;5050869;28;20099;-71
2022/10/07 05:48:49;;;;;;;19.55;12.20;;;5.80;99.90;;;;;;5051786;28;20028;-73
2022/10/07 05:51:16;;;;;;;18.20;11.73;;;5.90;99.90;;;;;;5052993;28;20032;-73
2022/10/07 05:53:42;;;;;;;11.30;8.85;;;5.90;99.90;;;;;;5042313;28;20025;-74
2022/10/07 05:56:09;;;;;;;16.73;11.15;;;6.00;99.90;;;;;;5042454;28;20540;-73
2022/10/07 05:58:35;;;;;;;22.83;14.18;;;6.20;99.90;;;;;;5052198;28;20028;-74
2022/10/07 06:01:03;;;;;;;24.38;14.88;;;6.40;99.90;;;;;;5053717;28;20071;-72
2022/10/07 06:03:28;;;;;;;19.65;12.98;;;6.60;99.90;;;;;;5053894;28;20381;-70
2022/10/07 06:05:54;;;;;;;22.45;13.50;;;6.90;99.90;;;;;;5053781;28;20087;-70
2022/10/07 06:08:22;;;;;;;21.20;12.65;;;7.10;99.90;;;;;;5054000;28;20021;-73
2022/10/07 06:13:33;;;;;;;20.33;13.82;;;7.60;99.90;;;;;;5054143;28;20060;-73
2022/10/07 06:16:06;;;;;;;22.23;13.00;;;7.80;99.90;;;;;;5048430;28;20028;-73
2022/10/07 06:18:34;;;;;;;29.42;15.18;;;8.10;99.90;;;;;;5052025;28;20028;-72
2022/10/07 06:21:00;;;;;;;19.50;13.13;;;8.30;99.90;;;;;;5053314;28;20036;-73
2022/10/07 06:23:27;;;;;;;23.17;14.50;;;8.50;99.90;;;;;;5053426;28;20036;-73
2022/10/07 06:26:03;;;;;;;17.63;12.55;;;8.60;99.90;;;;;;5066464;28;20029;-76
2022/10/07 06:28:35;;;;;;;19.15;12.68;;;8.80;99.90;;;;;;5073459;28;20051;-76
2022/10/07 06:31:05;;;;;;;20.23;12.68;;;9.00;99.90;;;;;;5073143;28;20060;-72
2022/10/07 06:33:31;;;;;;;17.30;12.45;;;9.10;99.90;;;;;;5073842;28;20078;-76
2022/10/07 06:36:01;;;;;;;21.02;13.68;;;9.30;99.90;;;;;;5071831;28;20111;-75
2022/10/07 06:38:27;;;;;;;18.95;13.90;;;9.40;99.90;;;;;;5073359;28;20070;-76
2022/10/07 06:41:00;;;;;;;21.55;15.25;;;9.60;99.90;;;;;;5072962;28;20036;-74
2022/10/07 06:43:30;;;;;;;24.20;16.08;;;9.70;99.90;;;;;;5072167;28;20020;-74
2022/10/07 06:46:03;;;;;;;23.02;16.52;;;9.80;99.90;;;;;;5073141;28;20012;-70
2022/10/07 06:48:31;;;;;;;15.82;11.30;;;10.00;99.90;;;;;;5071810;28;20026;-71
2022/10/07 06:50:58;;;;;;;15.68;11.45;;;10.10;99.90;;;;;;5072736;28;20040;-74
2022/10/07 06:53:24;;;;;;;16.83;10.27;;;10.20;99.90;;;;;;5071157;28;20054;-74
2022/10/07 06:55:50;;;;;;;15.45;9.15;;;10.40;99.90;;;;;;5052656;28;20025;-70
2022/10/07 06:58:19;;;;;;;10.88;8.77;;;10.60;99.90;;;;;;5053164;28;20028;-70
2022/10/07 07:00:49;;;;;;;11.65;7.75;;;10.70;99.90;;;;;;5052916;28;20049;-69
2022/10/07 07:03:15;;;;;;;12.88;7.32;;;10.80;99.90;;;;;;5053226;28;20033;-74
2022/10/07 07:05:42;;;;;;;9.60;7.25;;;11.00;99.90;;;;;;5053095;28;20035;-69
2022/10/07 07:08:08;;;;;;;15.45;7.43;;;11.10;99.90;;;;;;5053191;28;20063;-74
2022/10/07 07:10:37;;;;;;;13.15;6.93;;;11.20;99.90;;;;;;5053195;28;20033;-74
2022/10/07 07:13:07;;;;;;;9.27;7.63;;;11.30;99.90;;;;;;5051899;28;20025;-74
2022/10/07 07:15:34;;;;;;;9.90;8.20;;;11.40;99.90;;;;;;5053166;28;20028;-70
2022/10/07 07:18:00;;;;;;;10.55;8.63;;;11.60;99.90;;;;;;5053125;28;20536;-75
2022/10/07 07:20:33;;;;;;;13.85;7.43;;;11.70;99.90;;;;;;5051755;28;20037;-74
2022/10/07 07:23:03;;;;;;;13.82;7.95;;;11.80;99.90;;;;;;5053117;28;20066;-74
2022/10/07 07:25:30;;;;;;;12.68;6.70;;;11.90;99.90;;;;;;5054128;28;20021;-74
2022/10/07 07:27:59;;;;;;;9.15;7.03;;;12.00;99.90;;;;;;5067802;28;20482;-69
2022/10/07 07:30:25;;;;;;;15.98;6.85;;;12.10;99.90;;;;;;5072992;28;20041;-74
2022/10/07 07:32:50;;;;;;;9.88;6.47;;;12.20;99.90;;;;;;5072678;28;20482;-70
2022/10/07 07:35:16;;;;;;;10.90;5.70;;;12.30;99.90;;;;;;5072922;28;20104;-74
2022/10/07 07:37:42;;;;;;;9.80;6.32;;;12.50;99.90;;;;;;5066393;28;20474;-74
2022/10/07 07:40:08;;;;;;;9.43;5.97;;;12.50;99.90;;;;;;5051549;28;20124;-74
2022/10/07 07:42:34;;;;;;;10.13;5.65;;;12.50;99.90;;;;;;5050674;28;20024;-75
2022/10/07 07:45:00;;;;;;;8.57;4.85;;;12.70;99.90;;;;;;5051935;28;20437;-75
2022/10/07 07:47:26;;;;;;;8.45;5.45;;;12.80;99.90;;;;;;5050964;28;20021;-74
2022/10/07 07:49:52;;;;;;;9.07;5.85;;;12.90;99.90;;;;;;5051393;28;20039;-74
2022/10/07 07:52:18;;;;;;;7.97;5.78;;;13.00;99.90;;;;;;5052738;28;20021;-74
2022/10/07 07:54:44;;;;;;;7.85;5.10;;;13.10;99.90;;;;;;5052663;28;20458;-74
2022/10/07 07:57:10;;;;;;;9.23;4.22;;;13.30;99.90;;;;;;5059675;28;20020;-70
2022/10/07 07:59:38;;;;;;;10.55;4.85;;;13.40;99.90;;;;;;5072835;28;20078;-69
2022/10/07 08:02:06;;;;;;;4.35;3.72;;;13.50;99.90;;;;;;5070940;28;20040;-75
2022/10/07 08:04:31;;;;;;;6.90;4.40;;;13.60;99.90;;;;;;5072687;28;20454;-74
2022/10/07 08:06:57;;;;;;;11.30;5.05;;;13.70;99.90;;;;;;5072213;28;20032;-74
2022/10/07 08:09:23;;;;;;;6.05;4.28;;;13.70;99.90;;;;;;5061470;28;20108;-73
2022/10/07 08:11:49;;;;;;;6.32;4.60;;;13.80;99.90;;;;;;5054599;28;20066;-74
2022/10/07 08:14:16;;;;;;;8.80;4.05;;;13.90;99.90;;;;;;5055044;28;20025;-73
2022/10/07 08:16:42;;;;;;;7.90;4.45;;;14.00;99.90;;;;;;5056160;28;20044;-69
2022/10/07 08:19:10;;;;;;;6.47;4.22;;;14.20;99.90;;;;;;5056054;28;20035;-69
2022/10/07 08:21:35;;;;;;;8.20;4.57;;;14.30;99.90;;;;;;5053127;28;20664;-74
2022/10/07 08:24:03;;;;;;;6.03;4.32;;;14.40;99.90;;;;;;5052800;28;20120;-74
2022/10/07 08:26:31;;;;;;;8.70;5.18;;;14.60;99.90;;;;;;5073399;28;20074;-74
2022/10/07 08:28:57;;;;;;;6.57;4.40;;;14.70;99.90;;;;;;5034510;28;20083;-73
2022/10/07 08:31:26;;;;;;;7.35;5.43;;;14.70;99.90;;;;;;5034547;28;20022;-69
2022/10/07 08:33:53;;;;;;;11.20;5.75;;;14.80;99.90;;;;;;5052281;28;20024;-68
2022/10/07 08:36:21;;;;;;;8.00;5.13;;;14.90;99.90;;;;;;5054902;28;20056;-69
2022/10/07 08:38:48;;;;;;;9.40;4.47;;;15.00;99.90;;;;;;5055811;28;20033;-69
2022/10/07 08:41:30;;;;;;;5.07;4.57;;;15.10;99.90;;;;;;5055690;28;20461;-74
2022/10/07 08:43:57;;;;;;;7.80;4.82;;;15.10;99.90;;;;;;5054465;28;20024;-68
2022/10/07 08:46:30;;;;;;;9.85;7.22;;;15.10;99.90;;;;;;5055685;28;20021;-74
2022/10/07 08:49:03;;;;;;;6.85;5.35;;;15.20;99.90;;;;;;5055566;28;20029;-68
2022/10/07 08:51:42;;;;;;;6.25;5.03;;;15.30;99.90;;;;;;5055673;28;20048;-74
2022/10/07 08:54:12;;;;;;;8.75;5.20;;;15.40;99.90;;;;;;5044195;28;20025;-72
2022/10/07 08:56:39;;;;;;;6.85;5.63;;;15.50;99.90;;;;;;5055565;28;20063;-74
2022/10/07 08:59:30;;;;;;;6.78;5.10;;;15.50;99.90;;;;;;5073808;28;20028;-74
2022/10/07 09:02:14;;;;;;;9.88;5.43;;;15.50;99.90;;;;;;5075070;28;20139;-68
2022/10/07 09:05:14;;;;;;;7.80;5.50;;;15.60;99.90;;;;;;5075591;28;20381;-74
2022/10/07 09:07:46;;;;;;;7.38;5.05;;;15.70;99.90;;;;;;5075088;28;20029;-74
2022/10/07 09:10:36;;;;;;;8.45;5.07;;;15.90;99.90;;;;;;5075241;28;20036;-68
2022/10/07 09:13:12;;;;;;;10.35;5.13;;;16.00;99.90;;;;;;5045512;28;20056;-74
2022/10/07 09:15:51;;;;;;;6.47;5.72;;;16.10;99.90;;;;;;5053947;28;20013;-74
2022/10/07 09:18:23;;;;;;;7.55;5.05;;;16.20;99.90;;;;;;5055134;28;20039;-74
2022/10/07 09:20:53;;;;;;;8.07;5.05;;;16.30;99.90;;;;;;5053727;28;20094;-68
2022/10/07 09:23:27;;;;;;;8.50;5.03;;;16.40;99.90;;;;;;5054865;28;20035;-74
2022/10/07 09:25:53;;;;;;;8.25;4.72;;;16.40;99.90;;;;;;5068289;28;20116;-68
2022/10/07 09:28:24;;;;;;;7.18;5.35;;;16.50;99.90;;;;;;5074672;28;20098;-74
2022/10/07 09:30:50;;;;;;;6.93;5.68;;;16.60;99.90;;;;;;5074929;28;20027;-73
2022/10/07 09:33:19;;;;;;;9.15;5.20;;;16.70;99.90;;;;;;5074380;28;20017;-68
2022/10/07 09:35:54;;;;;;;7.88;5.95;;;16.80;99.90;;;;;;5074638;28;20036;-69
2022/10/07 09:38:36;;;;;;;7.72;5.65;;;16.90;99.90;;;;;;5074464;28;20367;-74
2022/10/07 09:41:19;;;;;;;10.37;6.07;;;16.80;99.90;;;;;;5074649;28;20123;-73
2022/10/07 09:44:02;;;;;;;10.38;6.07;;;16.80;99.90;;;;;;5074150;28;20547;-74
2022/10/07 09:46:45;;;;;;;8.20;5.57;;;16.90;99.90;;;;;;5074720;28;20110;-74
2022/10/07 09:49:37;;;;;;;7.40;6.05;;;17.00;99.90;;;;;;5072789;28;20027;-68
2022/10/07 09:52:15;;;;;;;8.45;5.68;;;17.10;99.90;;;;;;5074495;28;20491;-74
2022/10/07 09:54:43;;;;;;;9.82;5.53;;;17.10;99.90;;;;;;5060896;28;20035;-74
2022/10/07 09:57:27;;;;;;;7.78;5.10;;;17.20;99.90;;;;;;5054377;28;20013;-74
2022/10/07 10:00:14;;;;;;;6.70;5.45;;;17.30;99.90;;;;;;5054105;28;20082;-68
2022/10/07 10:02:45;;;;;;;10.45;5.80;;;17.30;99.90;;;;;;5054318;28;20037;-69
2022/10/07 10:05:22;;;;;;;10.38;6.15;;;17.40;99.90;;;;;;5053998;28;20029;-68
2022/10/07 10:07:54;;;;;;;9.82;5.35;;;17.50;99.90;;;;;;5054018;28;20033;-74
2022/10/07 10:10:25;;;;;;;8.95;6.07;;;17.50;99.90;;;;;;5054120;28;20098;-68
2022/10/07 10:12:53;;;;;;;9.57;6.40;;;17.50;99.90;;;;;;5054163;28;20360;-74
2022/10/07 10:15:22;;;;;;;5.90;5.15;;;17.60;99.90;;;;;;5052644;28;20032;-74
2022/10/07 10:17:48;;;;;;;9.57;5.97;;;17.50;99.90;;;;;;5053909;28;20091;-69
2022/10/07 10:20:28;;;;;;;11.20;5.22;;;17.60;99.90;;;;;;5053803;28;20039;-74
2022/10/07 10:22:55;;;;;;;5.75;4.75;;;17.70;99.90;;;;;;5053994;28;20032;-68
2022/10/07 10:28:44;;;;;;;8.70;5.90;;;17.80;99.90;;;;;;5073497;28;20178;-74
2022/10/07 10:31:47;;;;;;;7.07;5.97;;;17.90;99.90;;;;;;5073408;28;20021;-74
2022/10/07 10:34:19;;;;;;;8.50;5.95;;;17.90;99.90;;;;;;5073430;28;20466;-74
2022/10/07 10:36:52;;;;;;;7.17;5.23;;;18.00;99.60;;;;;;5073795;28;20028;-69
2022/10/07 10:39:34;;;;;;;7.07;6.10;;;18.00;99.60;;;;;;5073441;28;20027;-68
2022/10/07 10:42:05;;;;;;;9.15;6.43;;;18.00;94.90;;;;;;5073584;28;20107;-74
2022/10/07 10:44:48;;;;;;;7.07;6.07;;;18.00;94.90;;;;;;5073385;28;20427;-68
2022/10/07 10:47:39;;;;;;;9.05;5.95;;;18.10;95.80;;;;;;5073116;28;20462;-73
2022/10/07 10:50:11;;;;;;;8.48;6.07;;;18.10;99.50;;;;;;5073037;28;20426;-68
2022/10/07 10:52:58;;;;;;;14.43;6.85;;;18.10;99.90;;;;;;5073381;28;20028;-68
2022/10/07 10:55:38;;;;;;;7.22;6.20;;;18.10;98.90;;;;;;5052285;28;20401;-68
2022/10/07 10:58:17;;;;;;;7.80;5.03;;;18.20;98.70;;;;;;5052026;28;20032;-74
2022/10/07 11:01:05;;;;;;;6.07;5.47;;;18.20;90.80;;;;;;5053057;28;20525;-74
2022/10/07 11:03:49;;;;;;;8.23;6.00;;;18.30;91.60;;;;;;5053378;28;20078;-74
2022/10/07 11:06:16;;;;;;;7.80;5.45;;;18.40;93.30;;;;;;5053216;28;20351;-74
2022/10/07 11:08:43;;;;;;;9.60;6.03;;;18.40;93.20;;;;;;5053332;28;20021;-68
2022/10/07 11:11:17;;;;;;;10.38;5.50;;;18.40;93.00;;;;;;5053198;28;20059;-74
2022/10/07 11:13:57;;;;;;;8.73;4.97;;;18.50;90.70;;;;;;5053404;28;20056;-68
2022/10/07 11:16:37;;;;;;;6.60;4.82;;;18.60;92.10;;;;;;5051772;28;20025;-68
2022/10/07 11:19:29;;;;;;;6.32;4.93;;;18.70;86.90;;;;;;5051996;28;20437;-68
2022/10/07 11:21:59;;;;;;;5.97;4.73;;;18.70;83.20;;;;;;5051785;28;20075;-74
2022/10/07 11:24:39;;;;;;;6.10;5.50;;;18.70;81.60;;;;;;5055957;28;20389;-74
2022/10/07 11:27:13;;;;;;;4.93;4.45;;;18.70;80.20;;;;;;5073107;28;20103;-68
2022/10/07 11:29:56;;;;;;;6.10;4.28;;;18.80;81.60;;;;;;5072724;28;20048;-74
2022/10/07 11:32:56;;;;;;;7.82;5.15;;;18.80;78.50;;;;;;5072951;28;20526;-68
2022/10/07 11:35:31;;;;;;;8.90;4.50;;;18.80;76.80;;;;;;5069331;28;20037;-74
2022/10/07 11:38:23;;;;;;;7.95;5.60;;;18.80;79.30;;;;;;5072838;28;20390;-68
2022/10/07 11:41:20;;;;;;;5.18;4.63;;;18.70;83.10;;;;;;5072996;28;20036;-73
2022/10/07 11:43:51;;;;;;;5.07;4.57;;;18.80;86.30;;;;;;5075225;28;20448;-68
2022/10/07 11:46:29;;;;;;;4.60;4.13;;;18.80;78.40;;;;;;5076688;28;20017;-68
2022/10/07 11:49:00;;;;;;;6.32;4.00;;;18.80;73.80;;;;;;5075346;28;20421;-68
2022/10/07 11:51:37;;;;;;;4.80;4.10;;;18.80;73.20;;;;;;5076706;28;20028;-68
2022/10/07 11:54:06;;;;;;;6.22;4.20;;;18.80;73.40;;;;;;5066149;28;20056;-74
2022/10/07 11:56:48;;;;;;;5.35;4.60;;;18.90;75.90;;;;;;5056455;28;20021;-74
2022/10/07 11:59:34;;;;;;;8.20;5.25;;;18.90;75.60;;;;;;5056591;28;20028;-68
2022/10/07 12:02:01;;;;;;;5.68;4.68;;;18.90;74.10;;;;;;5056338;28;20088;-68
2022/10/07 12:04:29;;;;;;;8.52;4.47;;;18.90;78.40;;;;;;5056496;28;20029;-68
2022/10/07 12:07:33;;;;;;;6.85;5.03;;;18.90;75.80;;;;;;5056376;28;20029;-68
2022/10/07 12:10:04;;;;;;;7.97;5.30;;;19.00;77.50;;;;;;5056393;28;20025;-70
2022/10/07 12:12:43;;;;;;;7.82;5.05;;;19.10;79.00;;;;;;5055019;28;20371;-68
2022/10/07 12:15:31;;;;;;;12.18;5.85;;;19.00;75.80;;;;;;5054902;28;20155;-68
2022/10/07 12:18:05;;;;;;;6.53;4.70;;;19.00;74.10;;;;;;5055019;28;20387;-68
2022/10/07 12:20:34;;;;;;;10.02;5.22;;;19.10;75.80;;;;;;5054715;28;20057;-74
2022/10/07 12:23:36;;;;;;;6.30;4.43;;;19.10;75.90;;;;;;5055992;28;20027;-74
2022/10/07 12:26:02;;;;;;;8.18;3.83;;;19.10;78.60;;;;;;5061449;28;20115;-68
2022/10/07 12:28:33;;;;;;;4.68;3.92;;;19.10;79.10;;;;;;5075675;28;20113;-74
2022/10/07 12:31:04;;;;;;;4.90;3.53;;;19.00;75.30;;;;;;5075944;28;20111;-74
2022/10/07 12:33:45;;;;;;;5.13;3.80;;;19.20;76.80;;;;;;5075913;28;20096;-68
2022/10/07 12:36:29;;;;;;;7.63;3.78;;;19.30;74.50;;;;;;5075791;28;20035;-68
2022/10/07 12:38:58;;;;;;;7.97;5.05;;;19.30;73.50;;;;;;5075668;28;20020;-69
2022/10/07 12:41:35;;;;;;;6.88;5.05;;;19.40;70.70;;;;;;5075645;28;20112;-74
2022/10/07 12:44:16;;;;;;;5.40;3.67;;;19.50;70.70;;;;;;5075430;28;20064;-74
2022/10/07 12:46:48;;;;;;;8.00;4.03;;;19.50;73.20;;;;;;5075519;28;20108;-68
2022/10/07 12:49:19;;;;;;;6.53;4.10;;;19.60;71.70;;;;;;5075304;28;20059;-74
2022/10/07 12:51:45;;;;;;;6.97;4.30;;;19.60;69.80;;;;;;5075714;28;20029;-68
2022/10/07 12:54:19;;;;;;;5.93;3.28;;;19.60;74.10;;;;;;5064854;28;20451;-68
2022/10/07 12:56:45;;;;;;;6.07;3.60;;;19.60;74.50;;;;;;5055559;28;20021;-68
2022/10/07 13:02:52;;;;;;;50.63;8.10;;;19.60;71.30;;;;;;5055141;28;20103;-74
2022/10/07 13:06:09;;;;;;;1.50;1.20;;;19.60;72.60;;;;;;5055110;28;20040;-74
2022/10/07 13:09:06;;;;;;;6.63;3.78;;;19.60;73.20;;;;;;5043324;28;20042;-74
2022/10/07 13:11:58;;;;;;;6.15;3.90;;;19.60;74.20;;;;;;5050232;28;20037;-68
2022/10/07 13:14:36;;;;;;;7.18;4.13;;;19.60;72.00;;;;;;5054426;28;20013;-68
2022/10/07 13:17:34;;;;;;;4.80;3.42;;;19.60;74.60;;;;;;5054714;28;20078;-74
2022/10/07 13:20:26;;;;;;;6.70;3.42;;;19.60;71.20;;;;;;5054834;28;20032;-68
2022/10/07 13:22:52;;;;;;;4.70;3.33;;;19.60;71.30;;;;;;5053319;28;20124;-74
2022/10/07 13:25:19;;;;;;;5.63;3.78;;;19.50;73.10;;;;;;5065638;28;20032;-73